Ishpeming, Michigan
Current Conditions -  °F | °C
As of 8:47 PM on Friday 24 Oct 2014 (Local Time) from KSAW Reporting Station
Clear Clear  
Wind Chill: 50°   Ceiling: Unl
Heat Index: 50°   Visibility: 10mi
Dew Point: 46°   Wind: 12mph
Humidity: 87%   Direction: 180°S
Pressure: 29.8"   Gusts: NA
Location:  46.49°N, 87.67°W
Report Text: KSAW 250047Z 18010KT 10SM SKC 10/08 A2980
Loading
Personal Weather Stations






























Interactive Weather Map
Tropical Storm Tracking
New forecast layout! Learn more

10-Day Weather Forecast

Advertisements
Track Severe Weather on mobile